Time;durP1;ratioP1;P1;durP2;ratioP2;P2;SDS_P1;SDS_P2;PMS_P1;PMS_P2;Temp;Humidity;BMP_temperature;BMP_pressure;BME280_temperature;BME280_humidity;BME280_pressure;Samples;Min_cycle;Max_cycle;Signal;HPM_P1;HPM_P2
2022/05/09 00:00:32;;;;;;;1.63;1.57;;;11.90;98.00;;;;;;5011684;28;20465;-67
2022/05/09 00:03:00;;;;;;;3.23;2.03;;;11.90;98.00;;;;;;5011966;28;20470;-66
2022/05/09 00:05:29;;;;;;;2.20;1.83;;;11.90;98.00;;;;;;5011647;28;20459;-67
2022/05/09 00:07:57;;;;;;;4.73;2.47;;;11.80;98.00;;;;;;5011750;28;20527;-66
2022/05/09 00:10:26;;;;;;;2.50;2.40;;;11.80;98.00;;;;;;5026618;28;20861;-67
2022/05/09 00:12:54;;;;;;;2.33;1.90;;;11.80;98.00;;;;;;5011517;28;20459;-67
2022/05/09 00:15:21;;;;;;;3.00;2.47;;;11.80;98.00;;;;;;5011610;28;20532;-67
2022/05/09 00:17:49;;;;;;;1.50;1.40;;;11.80;98.00;;;;;;5012144;28;20459;-67
2022/05/09 00:20:17;;;;;;;2.33;1.53;;;11.80;98.00;;;;;;5027079;28;20815;-67
2022/05/09 00:22:47;;;;;;;2.33;1.87;;;11.70;98.00;;;;;;5011874;28;20460;-67
2022/05/09 00:25:16;;;;;;;1.80;1.60;;;11.70;98.00;;;;;;5011637;28;20466;-67
2022/05/09 00:27:43;;;;;;;2.30;1.77;;;11.70;98.00;;;;;;5011356;28;20493;-67
2022/05/09 00:30:11;;;;;;;3.53;2.07;;;11.80;98.00;;;;;;5011461;28;20472;-67
2022/05/09 00:32:38;;;;;;;1.40;1.30;;;11.70;98.00;;;;;;5026637;28;20537;-67
2022/05/09 00:35:07;;;;;;;1.60;1.50;;;11.70;98.00;;;;;;5026556;28;20455;-67
2022/05/09 00:37:34;;;;;;;2.40;2.07;;;11.70;98.00;;;;;;5026182;28;20464;-67
2022/05/09 00:40:03;;;;;;;3.10;2.10;;;11.90;98.00;;;;;;5026481;28;20461;-67
2022/05/09 00:42:32;;;;;;;2.60;1.93;;;12.20;98.00;;;;;;5025911;28;20454;-67
2022/05/09 00:44:59;;;;;;;1.80;1.70;;;12.20;98.00;;;;;;5011534;28;20471;-67
2022/05/09 00:47:27;;;;;;;2.30;1.93;;;12.10;98.00;;;;;;5025882;28;20489;-67
2022/05/09 00:50:00;;;;;;;1.97;1.53;;;12.20;98.00;;;;;;5026525;28;20476;-67
2022/05/09 00:52:32;;;;;;;2.33;1.93;;;12.00;98.00;;;;;;5012980;28;20517;-67
2022/05/09 00:55:04;;;;;;;5.43;2.60;;;11.70;98.00;;;;;;5029841;28;20477;-67
2022/05/09 00:57:37;;;;;;;2.70;1.70;;;11.60;98.00;;;;;;5015279;28;20482;-67
2022/05/09 01:00:08;;;;;;;2.50;1.80;;;11.30;98.00;;;;;;5015341;28;20473;-67
2022/05/09 01:02:36;;;;;;;2.93;2.13;;;11.30;98.00;;;;;;5015134;28;20474;-67
2022/05/09 01:05:04;;;;;;;1.87;1.60;;;11.30;98.00;;;;;;5029975;28;20468;-67
2022/05/09 01:07:34;;;;;;;4.40;1.90;;;11.40;98.00;;;;;;5014578;28;20485;-67
2022/05/09 01:10:01;;;;;;;2.77;2.13;;;11.30;98.00;;;;;;5014677;28;20453;-67
2022/05/09 01:12:33;;;;;;;2.50;1.77;;;11.20;98.00;;;;;;5014788;28;20853;-67
2022/05/09 01:15:03;;;;;;;1.53;1.43;;;11.10;98.00;;;;;;5014900;28;20465;-67
2022/05/09 01:17:31;;;;;;;1.70;1.60;;;11.10;98.00;;;;;;5014746;28;20470;-67
2022/05/09 01:20:02;;;;;;;1.83;1.50;;;11.00;98.00;;;;;;5015018;28;20862;-67
2022/05/09 01:22:32;;;;;;;1.73;1.50;;;11.10;98.00;;;;;;5013446;28;20461;-67
2022/05/09 01:25:03;;;;;;;1.93;1.53;;;11.00;98.00;;;;;;5014986;28;20539;-67
2022/05/09 01:27:30;;;;;;;1.90;1.83;;;11.00;98.00;;;;;;5014454;28;20495;-67
2022/05/09 01:30:01;;;;;;;3.70;2.23;;;11.00;98.00;;;;;;5014520;28;20463;-67
2022/05/09 01:32:32;;;;;;;1.60;1.50;;;11.00;98.00;;;;;;5014387;28;20455;-67
2022/05/09 01:35:05;;;;;;;3.80;2.10;;;11.10;98.00;;;;;;5029473;28;20517;-67
2022/05/09 01:37:35;;;;;;;2.13;1.70;;;11.10;98.00;;;;;;5013952;28;20557;-67
2022/05/09 01:40:02;;;;;;;2.43;2.10;;;11.00;98.00;;;;;;5014131;28;20501;-67
2022/05/09 01:42:29;;;;;;;2.13;1.87;;;11.00;98.00;;;;;;5013995;28;20464;-67
2022/05/09 01:44:56;;;;;;;1.57;1.50;;;11.00;98.00;;;;;;5014378;28;20488;-67
2022/05/09 01:50:08;;;;;;;4.03;2.00;;;11.20;98.00;;;;;;5027298;28;20549;-67
2022/05/09 01:52:38;;;;;;;2.30;1.80;;;11.30;98.00;;;;;;5013795;28;20482;-67
2022/05/09 01:55:06;;;;;;;2.40;1.60;;;11.10;98.00;;;;;;5013986;28;20487;-67
2022/05/09 01:57:33;;;;;;;2.30;1.60;;;11.00;98.00;;;;;;5013884;28;20795;-67
2022/05/09 02:00:04;;;;;;;3.00;1.97;;;10.90;98.00;;;;;;5013992;28;20469;-67
2022/05/09 02:02:32;;;;;;;2.13;1.40;;;11.00;98.00;;;;;;5013715;28;20497;-67
2022/05/09 02:04:59;;;;;;;1.80;1.60;;;10.90;98.00;;;;;;5012987;28;20638;-67
2022/05/09 02:07:26;;;;;;;1.40;1.27;;;10.90;98.00;;;;;;5028616;28;21002;-67
2022/05/09 02:09:55;;;;;;;3.10;2.57;;;10.90;98.00;;;;;;5013747;28;20457;-67
2022/05/09 02:12:22;;;;;;;1.90;1.77;;;10.80;98.00;;;;;;5013591;28;20965;-67
2022/05/09 02:14:50;;;;;;;1.43;1.33;;;10.60;98.00;;;;;;5013688;28;20548;-67
2022/05/09 02:17:17;;;;;;;2.80;1.57;;;10.60;98.00;;;;;;5013832;28;20469;-67
2022/05/09 02:19:46;;;;;;;1.60;1.40;;;10.60;98.00;;;;;;5013723;28;20448;-67
2022/05/09 02:22:14;;;;;;;2.63;1.90;;;10.80;98.00;;;;;;5013266;28;20514;-67
2022/05/09 02:24:41;;;;;;;2.03;1.63;;;10.80;98.00;;;;;;5028460;28;20473;-67
2022/05/09 02:27:10;;;;;;;2.53;2.10;;;10.60;98.00;;;;;;5013013;28;20475;-67
2022/05/09 02:29:39;;;;;;;2.83;1.97;;;10.60;98.00;;;;;;5013197;28;20471;-67
2022/05/09 02:32:11;;;;;;;2.53;2.00;;;10.40;98.00;;;;;;5013184;28;20497;-67
2022/05/09 02:34:39;;;;;;;2.60;1.50;;;10.30;98.00;;;;;;5013183;28;20460;-67
2022/05/09 02:37:06;;;;;;;2.23;1.70;;;10.30;98.00;;;;;;5013010;28;20562;-67
2022/05/09 02:39:33;;;;;;;4.10;2.17;;;10.30;98.00;;;;;;5013440;28;20464;-67
2022/05/09 02:42:00;;;;;;;2.13;1.67;;;10.30;98.00;;;;;;5012995;28;20499;-67
2022/05/09 02:44:29;;;;;;;2.53;1.77;;;10.40;98.00;;;;;;5028318;28;20464;-67
2022/05/09 02:46:56;;;;;;;2.10;1.77;;;10.50;98.00;;;;;;5012664;28;20501;-67
2022/05/09 02:49:24;;;;;;;3.00;2.17;;;10.60;98.00;;;;;;5027935;28;20467;-67
2022/05/09 02:51:52;;;;;;;1.70;1.60;;;10.50;98.00;;;;;;5012814;28;20902;-66
2022/05/09 02:54:22;;;;;;;2.20;1.73;;;10.50;98.00;;;;;;5012781;28;20651;-67
2022/05/09 02:56:49;;;;;;;1.60;1.40;;;10.40;98.00;;;;;;5012935;28;20467;-67
2022/05/09 02:59:16;;;;;;;1.83;1.57;;;10.40;98.00;;;;;;5027628;28;20454;-67
2022/05/09 03:01:44;;;;;;;2.17;1.53;;;10.40;98.00;;;;;;5012642;28;20466;-67
2022/05/09 03:06:57;;;;;;;1.97;1.70;;;10.40;98.00;;;;;;5012908;28;20554;-67
2022/05/09 03:09:24;;;;;;;1.40;1.40;;;10.40;98.00;;;;;;5012525;28;20981;-67
2022/05/09 03:11:51;;;;;;;4.23;2.23;;;10.40;98.00;;;;;;5012541;28;20453;-67
2022/05/09 03:14:18;;;;;;;2.70;1.60;;;10.50;98.00;;;;;;5011887;28;20464;-67
2022/05/09 03:16:47;;;;;;;1.50;1.40;;;10.50;98.00;;;;;;5012856;28;20451;-67
2022/05/09 03:19:14;;;;;;;1.90;1.70;;;10.40;98.00;;;;;;5027769;28;20978;-67
2022/05/09 03:21:41;;;;;;;1.87;1.50;;;10.50;98.00;;;;;;5012333;28;20464;-67
2022/05/09 03:24:09;;;;;;;3.83;2.83;;;10.50;98.00;;;;;;5012372;28;20486;-67
2022/05/09 03:26:36;;;;;;;1.83;1.80;;;10.40;98.00;;;;;;5012136;28;20469;-67
2022/05/09 03:29:03;;;;;;;2.40;2.27;;;10.20;98.00;;;;;;5027144;28;20515;-67
2022/05/09 03:31:31;;;;;;;4.97;1.67;;;10.20;98.00;;;;;;5012018;28;20497;-67
2022/05/09 03:34:00;;;;;;;1.83;1.73;;;10.20;98.00;;;;;;5012053;28;20496;-67
2022/05/09 03:36:27;;;;;;;2.17;1.53;;;10.00;98.00;;;;;;5027048;28;20481;-67
2022/05/09 03:38:54;;;;;;;3.87;1.70;;;10.00;98.00;;;;;;5011911;28;20474;-67
2022/05/09 03:41:21;;;;;;;2.30;1.77;;;10.00;98.00;;;;;;5011912;28;20471;-67
2022/05/09 03:43:48;;;;;;;2.30;1.43;;;10.10;98.00;;;;;;5027125;28;20509;-67
2022/05/09 03:46:15;;;;;;;3.10;1.80;;;10.00;98.00;;;;;;5011941;28;20456;-67
2022/05/09 03:48:42;;;;;;;2.87;1.47;;;10.10;98.00;;;;;;5011757;28;20486;-67
2022/05/09 03:51:11;;;;;;;4.43;2.37;;;10.10;98.00;;;;;;5011800;28;20460;-67
2022/05/09 03:53:38;;;;;;;16.63;1.70;;;10.30;98.00;;;;;;5012093;28;20486;-67
2022/05/09 03:56:07;;;;;;;2.53;1.90;;;10.20;98.00;;;;;;5011687;28;20461;-67
2022/05/09 03:58:34;;;;;;;2.57;2.00;;;10.20;98.00;;;;;;5011776;28;20462;-67
2022/05/09 04:01:01;;;;;;;2.07;1.97;;;10.20;98.00;;;;;;5011676;28;20468;-67
2022/05/09 04:03:29;;;;;;;2.07;1.77;;;10.10;98.00;;;;;;5011806;28;20469;-67
2022/05/09 04:05:56;;;;;;;2.67;2.03;;;10.20;98.00;;;;;;5011771;28;20458;-67
2022/05/09 04:08:24;;;;;;;5.10;2.20;;;10.20;98.00;;;;;;5011446;28;21069;-67
2022/05/09 04:10:54;;;;;;;2.10;1.70;;;10.40;98.00;;;;;;5011518;28;20525;-67
2022/05/09 04:13:23;;;;;;;1.53;1.43;;;10.50;98.00;;;;;;5011831;28;20865;-67
2022/05/09 04:18:40;;;;;;;4.97;1.87;;;10.30;98.00;;;;;;5011833;28;20466;-67
2022/05/09 04:21:08;;;;;;;1.70;1.60;;;10.20;98.00;;;;;;5011562;28;20473;-67
2022/05/09 04:23:37;;;;;;;2.57;1.87;;;10.10;98.00;;;;;;5011801;28;20849;-67
2022/05/09 04:26:06;;;;;;;3.03;2.33;;;10.20;98.00;;;;;;5011429;28;20457;-67
2022/05/09 04:28:33;;;;;;;7.60;2.23;;;10.30;98.00;;;;;;5015313;28;20735;-67
2022/05/09 04:31:01;;;;;;;2.20;2.00;;;10.40;98.00;;;;;;5015931;28;20458;-67
2022/05/09 04:33:28;;;;;;;1.60;1.60;;;10.30;98.00;;;;;;5030792;28;20461;-67
2022/05/09 04:35:57;;;;;;;1.63;1.53;;;10.30;98.00;;;;;;5015541;28;20460;-67
2022/05/09 04:38:24;;;;;;;2.63;1.70;;;10.30;98.00;;;;;;5015055;28;20471;-67
2022/05/09 04:41:02;;;;;;;3.10;2.10;;;10.20;98.00;;;;;;5015458;28;20866;-67
2022/05/09 04:43:30;;;;;;;2.00;1.33;;;10.20;98.00;;;;;;5015231;28;20467;-67
2022/05/09 04:46:00;;;;;;;1.60;1.40;;;10.20;98.00;;;;;;5015294;28;20825;-67
2022/05/09 04:48:27;;;;;;;2.43;1.67;;;10.20;98.00;;;;;;5015147;28;20563;-67
2022/05/09 04:50:54;;;;;;;3.03;1.93;;;10.20;98.00;;;;;;5015277;28;20463;-67
2022/05/09 04:53:21;;;;;;;3.43;1.77;;;10.20;98.00;;;;;;5014871;28;21013;-67
2022/05/09 04:55:48;;;;;;;1.60;1.40;;;10.30;98.00;;;;;;5015128;28;20458;-67
2022/05/09 04:58:21;;;;;;;2.20;1.60;;;10.30;98.00;;;;;;5014731;28;20461;-67
2022/05/09 05:00:49;;;;;;;1.40;1.40;;;10.30;98.00;;;;;;5015000;28;20474;-67
2022/05/09 05:03:16;;;;;;;3.60;2.33;;;10.30;98.00;;;;;;5014845;28;20975;-67
2022/05/09 05:05:43;;;;;;;2.57;1.87;;;10.40;98.00;;;;;;5014952;28;20691;-67
2022/05/09 05:08:13;;;;;;;1.80;1.80;;;10.30;98.00;;;;;;5029827;28;20486;-67
2022/05/09 05:10:41;;;;;;;3.17;2.23;;;10.40;98.00;;;;;;5014777;28;20483;-67
2022/05/09 05:13:09;;;;;;;2.40;2.20;;;10.40;98.00;;;;;;5014536;28;21052;-67
2022/05/09 05:15:38;;;;;;;2.03;1.47;;;10.50;98.00;;;;;;5015064;28;20863;-67
2022/05/09 05:18:06;;;;;;;2.67;2.03;;;10.60;98.00;;;;;;5014928;28;20458;-67
2022/05/09 05:20:34;;;;;;;1.77;1.77;;;10.70;98.00;;;;;;5015069;28;20952;-67
2022/05/09 05:23:01;;;;;;;2.80;2.10;;;11.00;98.00;;;;;;5014483;28;20830;-67
2022/05/09 05:25:30;;;;;;;1.93;1.63;;;11.00;98.00;;;;;;5014491;28;20457;-67
2022/05/09 05:27:58;;;;;;;2.53;1.97;;;11.10;98.00;;;;;;5014333;28;20995;-67
2022/05/09 05:30:25;;;;;;;3.20;1.60;;;11.20;98.00;;;;;;5014537;28;20551;-67
2022/05/09 05:32:55;;;;;;;2.03;1.93;;;11.30;98.00;;;;;;5014443;28;20893;-67
2022/05/09 05:35:25;;;;;;;2.07;1.43;;;11.30;98.00;;;;;;5014246;28;20479;-67
2022/05/09 05:37:52;;;;;;;2.43;2.23;;;11.30;98.00;;;;;;5013766;28;20880;-67
2022/05/09 05:40:19;;;;;;;2.87;2.30;;;11.40;98.00;;;;;;5014088;28;20462;-67
2022/05/09 05:42:47;;;;;;;2.30;2.00;;;11.50;98.00;;;;;;5014116;28;20460;-67
2022/05/09 05:45:16;;;;;;;3.13;2.00;;;11.70;98.00;;;;;;5014007;28;20556;-67
2022/05/09 05:47:44;;;;;;;2.67;2.07;;;11.80;98.00;;;;;;5013859;28;20488;-67
2022/05/09 05:50:14;;;;;;;4.03;2.50;;;11.80;98.00;;;;;;5013981;28;20489;-67
2022/05/09 05:52:42;;;;;;;1.93;1.83;;;11.90;98.00;;;;;;5012641;28;20476;-67
2022/05/09 05:55:10;;;;;;;3.57;3.03;;;12.00;98.00;;;;;;5013933;28;20448;-67
2022/05/09 05:57:39;;;;;;;2.17;1.80;;;12.10;98.00;;;;;;5012557;28;20524;-67
2022/05/09 06:00:10;;;;;;;1.83;1.73;;;12.20;98.00;;;;;;5013800;28;20459;-67
2022/05/09 06:02:39;;;;;;;3.10;1.90;;;12.20;98.00;;;;;;5013183;28;20474;-67
2022/05/09 06:05:07;;;;;;;2.00;1.60;;;12.20;98.00;;;;;;5013184;28;20558;-67
2022/05/09 06:07:37;;;;;;;3.03;2.03;;;12.30;98.00;;;;;;5014752;28;20552;-67
2022/05/09 06:10:07;;;;;;;3.53;2.23;;;12.40;98.00;;;;;;5014736;28;20840;-67
2022/05/09 06:12:34;;;;;;;2.23;1.83;;;12.50;98.00;;;;;;5014698;28;20469;-67
2022/05/09 06:17:49;;;;;;;3.07;2.20;;;12.80;98.00;;;;;;5014572;28;20524;-66
2022/05/09 06:20:16;;;;;;;2.40;2.00;;;12.80;98.00;;;;;;5013038;28;20596;-67
2022/05/09 06:22:48;;;;;;;3.97;2.80;;;12.90;98.00;;;;;;5014331;28;20937;-67
2022/05/09 06:25:18;;;;;;;2.03;1.87;;;13.00;98.00;;;;;;5014125;28;20491;-67
2022/05/09 06:27:46;;;;;;;3.03;2.17;;;13.20;98.00;;;;;;5013983;28;20818;-67
2022/05/09 06:30:15;;;;;;;2.37;1.97;;;13.30;98.00;;;;;;5013531;28;20470;-67
2022/05/09 06:32:42;;;;;;;2.90;2.13;;;13.40;98.00;;;;;;5013206;28;20460;-66
2022/05/09 06:35:14;;;;;;;3.57;2.60;;;13.50;98.00;;;;;;5013158;28;20462;-66
2022/05/09 06:37:42;;;;;;;4.10;2.90;;;13.60;98.00;;;;;;5013044;28;20528;-66
2022/05/09 06:40:12;;;;;;;3.07;1.93;;;13.70;98.00;;;;;;5013330;28;20455;-66
2022/05/09 06:42:39;;;;;;;2.87;2.10;;;13.90;98.00;;;;;;5013383;28;20560;-66
2022/05/09 06:45:08;;;;;;;2.40;1.80;;;14.00;98.00;;;;;;5013532;28;20459;-66
2022/05/09 06:47:36;;;;;;;2.67;1.93;;;14.00;98.00;;;;;;5013187;28;20561;-67
2022/05/09 06:50:05;;;;;;;3.10;2.30;;;13.90;98.00;;;;;;5012917;28;20461;-67
2022/05/09 06:52:34;;;;;;;2.20;1.93;;;14.00;98.00;;;;;;5013465;28;20470;-67
2022/05/09 06:55:01;;;;;;;3.00;2.83;;;14.00;98.00;;;;;;5012315;28;20460;-67
2022/05/09 06:57:29;;;;;;;4.07;2.53;;;14.10;98.00;;;;;;5013255;28;20541;-67
2022/05/09 06:59:56;;;;;;;4.40;2.50;;;14.20;98.00;;;;;;5013369;28;20457;-67
2022/05/09 07:02:23;;;;;;;2.60;2.07;;;14.30;98.00;;;;;;5008966;28;20460;-67
2022/05/09 07:04:50;;;;;;;3.40;2.30;;;14.40;98.00;;;;;;5009579;28;20468;-67
2022/05/09 07:07:17;;;;;;;5.13;3.53;;;14.60;98.00;;;;;;5010570;28;20880;-67
2022/05/09 07:09:44;;;;;;;4.77;2.93;;;14.70;98.00;;;;;;5010588;28;20506;-67
2022/05/09 07:12:12;;;;;;;3.97;3.00;;;14.90;98.00;;;;;;5010604;28;20494;-67
2022/05/09 07:14:42;;;;;;;3.23;2.50;;;15.00;98.00;;;;;;5010555;28;20459;-66
2022/05/09 07:17:13;;;;;;;4.70;2.40;;;15.10;98.00;;;;;;5010489;28;20467;-66
2022/05/09 07:19:44;;;;;;;2.90;2.60;;;15.30;98.00;;;;;;5010345;28;21136;-66
2022/05/09 07:22:11;;;;;;;2.67;2.47;;;15.40;98.00;;;;;;5010267;28;20461;-66
2022/05/09 07:24:40;;;;;;;5.57;2.60;;;15.60;98.00;;;;;;5010249;28;20462;-67
2022/05/09 07:27:09;;;;;;;2.13;2.00;;;15.70;98.00;;;;;;5009908;28;20462;-66
2022/05/09 07:29:36;;;;;;;4.57;2.87;;;15.80;98.00;;;;;;5010465;28;20498;-67
2022/05/09 07:32:05;;;;;;;4.53;2.80;;;15.90;98.00;;;;;;5012487;28;20973;-65
2022/05/09 07:34:32;;;;;;;2.43;1.70;;;16.10;98.00;;;;;;5011535;28;20472;-65
2022/05/09 07:36:59;;;;;;;4.30;3.07;;;16.20;98.00;;;;;;5010935;28;20461;-65
2022/05/09 07:39:27;;;;;;;3.83;2.53;;;16.30;98.00;;;;;;5012704;28;20479;-65
2022/05/09 07:41:55;;;;;;;2.40;2.00;;;16.50;98.00;;;;;;5012209;28;20992;-65
2022/05/09 07:44:23;;;;;;;4.30;2.70;;;16.70;98.00;;;;;;5012741;28;20462;-65
2022/05/09 07:46:50;;;;;;;5.10;2.87;;;16.90;98.00;;;;;;5012468;28;20464;-65
2022/05/09 07:49:18;;;;;;;3.17;2.37;;;17.10;98.00;;;;;;5012421;28;20484;-65
2022/05/09 07:51:45;;;;;;;3.40;2.20;;;17.30;98.00;;;;;;5012753;28;20451;-65
2022/05/09 07:54:12;;;;;;;3.30;2.33;;;17.40;98.00;;;;;;5012368;28;20933;-65
2022/05/09 07:56:43;;;;;;;3.40;2.67;;;17.60;98.00;;;;;;5012497;28;20464;-65
2022/05/09 07:59:10;;;;;;;5.13;2.60;;;17.60;98.00;;;;;;5012583;28;20452;-65
2022/05/09 08:01:37;;;;;;;2.40;1.80;;;17.70;98.00;;;;;;5012372;28;20847;-65
2022/05/09 08:04:04;;;;;;;3.10;2.40;;;17.70;98.00;;;;;;5012444;28;20459;-65
2022/05/09 08:06:33;;;;;;;3.40;2.30;;;17.80;98.00;;;;;;5012296;28;20463;-66
2022/05/09 08:09:02;;;;;;;3.50;2.30;;;18.00;98.00;;;;;;5012307;28;20526;-65
2022/05/09 08:11:30;;;;;;;4.67;2.30;;;18.10;98.00;;;;;;5012512;28;20464;-65
2022/05/09 08:13:58;;;;;;;2.50;2.07;;;18.10;98.00;;;;;;5012311;28;20471;-65
2022/05/09 08:16:29;;;;;;;3.70;2.37;;;18.30;98.00;;;;;;5012555;28;20461;-65
2022/05/09 08:18:56;;;;;;;3.40;2.47;;;18.40;98.00;;;;;;5012530;28;20487;-65
2022/05/09 08:21:24;;;;;;;4.93;2.43;;;18.50;98.00;;;;;;5012526;28;20459;-65
2022/05/09 08:23:54;;;;;;;4.53;2.87;;;18.60;98.00;;;;;;5012687;28;20938;-65
2022/05/09 08:26:22;;;;;;;5.63;2.10;;;18.70;98.00;;;;;;5012256;28;20456;-64
2022/05/09 08:28:49;;;;;;;3.97;2.47;;;18.90;98.00;;;;;;5011993;28;20630;-65
2022/05/09 08:31:18;;;;;;;2.43;2.00;;;19.00;98.00;;;;;;5011666;28;21030;-65
2022/05/09 08:33:46;;;;;;;2.93;2.10;;;19.20;98.00;;;;;;5011837;28;20457;-65
2022/05/09 08:36:45;;;;;;;2.53;2.07;;;19.30;98.00;;;;;;5011880;28;20490;-65
2022/05/09 08:39:02;;;;;;;3.30;2.50;;;19.50;98.00;;;;;;5011437;28;20471;-66
2022/05/09 08:41:33;;;;;;;2.87;2.07;;;19.70;98.00;;;;;;5010424;28;20495;-65
2022/05/09 08:44:17;;;;;;;3.70;2.60;;;19.90;98.00;;;;;;5011878;28;20467;-65
2022/05/09 08:46:50;;;;;;;4.20;2.57;;;20.10;98.00;;;;;;5012331;28;20463;-65
2022/05/09 08:49:38;;;;;;;3.80;2.60;;;20.30;98.00;;;;;;5011819;28;20487;-65
2022/05/09 08:52:18;;;;;;;3.50;2.73;;;20.40;98.00;;;;;;5011995;28;20690;-65
2022/05/09 08:54:46;;;;;;;3.50;2.57;;;20.50;98.00;;;;;;5011961;28;20941;-65
2022/05/09 08:57:18;;;;;;;3.07;2.37;;;20.50;98.00;;;;;;5011917;28;20480;-65
2022/05/09 08:59:50;;;;;;;4.27;2.70;;;20.50;98.00;;;;;;5010762;28;20477;-65
2022/05/09 09:02:22;;;;;;;2.60;2.13;;;20.60;98.00;;;;;;5011555;28;20469;-65
2022/05/09 09:04:55;;;;;;;4.03;2.73;;;20.80;98.00;;;;;;5011995;28;20850;-65
2022/05/09 09:07:49;;;;;;;6.10;2.90;;;20.90;98.00;;;;;;5011587;28;20540;-66
2022/05/09 09:10:25;;;;;;;2.60;2.30;;;21.00;98.00;;;;;;5011536;28;21082;-65
2022/05/09 09:13:06;;;;;;;3.90;2.80;;;21.20;98.00;;;;;;5012595;28;20508;-65
2022/05/09 09:15:46;;;;;;;4.70;2.83;;;21.40;98.00;;;;;;5014631;28;20458;-65
2022/05/09 09:18:31;;;;;;;4.00;2.80;;;21.50;98.00;;;;;;5014651;28;20510;-66
2022/05/09 09:21:11;;;;;;;3.93;2.57;;;21.70;97.50;;;;;;5014662;28;20474;-64
2022/05/09 09:23:58;;;;;;;4.60;2.90;;;21.80;96.50;;;;;;5009287;28;20459;-66
2022/05/09 09:26:34;;;;;;;4.33;2.67;;;21.90;97.00;;;;;;5015350;28;20887;-64
2022/05/09 09:29:08;;;;;;;5.37;2.60;;;22.00;93.60;;;;;;5013952;28;20856;-66
2022/05/09 09:31:38;;;;;;;5.77;3.20;;;22.10;95.60;;;;;;5013782;28;20549;-66
2022/05/09 09:34:14;;;;;;;5.53;3.33;;;22.30;94.40;;;;;;5015285;28;20934;-66
2022/05/09 09:36:48;;;;;;;6.07;3.57;;;22.50;95.90;;;;;;5014902;28;20459;-67
2022/05/09 09:39:17;;;;;;;4.00;2.93;;;22.70;95.10;;;;;;5014815;28;20528;-65
2022/05/09 09:41:46;;;;;;;4.00;3.00;;;22.90;93.90;;;;;;5014740;28;20471;-63
2022/05/09 09:44:15;;;;;;;4.13;3.10;;;23.10;94.90;;;;;;5013358;28;20482;-64
2022/05/09 09:47:08;;;;;;;4.00;2.63;;;23.20;91.70;;;;;;5011879;28;20467;-62
2022/05/09 09:49:39;;;;;;;5.77;3.37;;;23.00;92.70;;;;;;5010608;28;20658;-64
2022/05/09 09:52:19;;;;;;;5.60;2.70;;;23.10;91.70;;;;;;5012191;28;20471;-63
2022/05/09 09:54:52;;;;;;;5.93;3.10;;;23.10;94.00;;;;;;5012439;28;20459;-64
2022/05/09 09:57:23;;;;;;;4.23;2.63;;;23.40;92.40;;;;;;5012035;28;20468;-63
2022/05/09 09:59:50;;;;;;;5.03;2.73;;;23.40;91.70;;;;;;5012147;28;20821;-63
2022/05/09 10:02:24;;;;;;;4.93;2.50;;;23.60;92.20;;;;;;5012102;28;20866;-63
2022/05/09 10:04:54;;;;;;;3.63;2.60;;;23.80;91.70;;;;;;5011707;28;20490;-63
2022/05/09 10:07:31;;;;;;;4.83;3.27;;;23.80;88.50;;;;;;5011743;28;21048;-63
2022/05/09 10:10:10;;;;;;;5.70;3.10;;;23.90;87.60;;;;;;5012431;28;20483;-63
2022/05/09 10:12:40;;;;;;;4.70;3.07;;;23.90;89.70;;;;;;5014156;28;20517;-63
2022/05/09 10:15:30;;;;;;;4.40;3.13;;;24.10;90.80;;;;;;5014335;28;20518;-63
2022/05/09 10:17:58;;;;;;;3.27;2.60;;;24.40;89.40;;;;;;5014231;28;20459;-63
2022/05/09 10:20:34;;;;;;;2.90;2.23;;;24.40;89.90;;;;;;5014255;28;20471;-63
2022/05/09 10:26:05;;;;;;;6.83;3.47;;;24.60;87.50;;;;;;5013273;28;20451;-63
2022/05/09 10:28:37;;;;;;;4.17;2.93;;;24.80;88.70;;;;;;5013666;28;20491;-63
2022/05/09 10:31:21;;;;;;;3.10;2.33;;;24.70;87.20;;;;;;5014007;28;20487;-63
2022/05/09 10:33:56;;;;;;;5.90;3.53;;;24.50;89.20;;;;;;5013079;28;20522;-63
2022/05/09 10:36:27;;;;;;;4.43;2.83;;;24.30;87.80;;;;;;5013207;28;20451;-63
2022/05/09 10:38:59;;;;;;;6.00;3.40;;;24.10;87.10;;;;;;5012509;28;20733;-63
2022/05/09 10:41:32;;;;;;;6.97;2.80;;;24.00;86.40;;;;;;5012775;28;20463;-63
2022/05/09 10:44:09;;;;;;;4.17;3.00;;;24.20;88.60;;;;;;5012540;28;20860;-63
2022/05/09 10:46:47;;;;;;;4.47;2.77;;;24.20;87.80;;;;;;5012521;28;20957;-63
2022/05/09 10:49:32;;;;;;;4.13;2.90;;;24.50;90.20;;;;;;5012682;28;20483;-63
2022/05/09 10:52:09;;;;;;;6.07;3.10;;;24.90;85.20;;;;;;5011834;28;20462;-63
2022/05/09 10:54:46;;;;;;;4.83;2.80;;;25.20;86.80;;;;;;5012870;28;20447;-63
2022/05/09 10:57:23;;;;;;;5.23;3.20;;;25.40;85.10;;;;;;5012693;28;20459;-63
2022/05/09 10:59:55;;;;;;;5.87;3.70;;;25.10;82.30;;;;;;5012678;28;20470;-63
2022/05/09 11:02:26;;;;;;;3.37;2.30;;;24.70;83.70;;;;;;5013196;28;20460;-63
2022/05/09 11:04:53;;;;;;;6.17;3.07;;;24.40;83.90;;;;;;5013371;28;20870;-63
2022/05/09 11:07:30;;;;;;;5.10;3.13;;;24.20;84.80;;;;;;5013132;28;20793;-63
2022/05/09 11:10:09;;;;;;;5.70;3.17;;;24.00;86.70;;;;;;5013148;28;20491;-63
2022/05/09 11:12:56;;;;;;;5.17;3.10;;;23.90;85.70;;;;;;5012995;28;20463;-63
2022/05/09 11:15:38;;;;;;;4.07;3.03;;;23.80;85.80;;;;;;5013411;28;20926;-63
2022/05/09 11:18:29;;;;;;;3.93;2.83;;;24.30;86.20;;;;;;5013303;28;20491;-63
2022/05/09 11:21:05;;;;;;;6.00;2.67;;;24.90;84.00;;;;;;5012986;28;20969;-63
2022/05/09 11:23:41;;;;;;;5.17;3.27;;;25.00;83.00;;;;;;5013003;28;20470;-63
2022/05/09 11:26:14;;;;;;;5.30;3.27;;;24.80;83.50;;;;;;5013079;28;20541;-63
2022/05/09 11:29:06;;;;;;;3.90;2.73;;;24.50;83.70;;;;;;5012839;28;20513;-63
2022/05/09 11:31:46;;;;;;;3.93;3.00;;;24.80;83.80;;;;;;5012975;28;20529;-63
2022/05/09 11:34:30;;;;;;;5.83;3.17;;;25.20;83.90;;;;;;5012581;28;20462;-63
2022/05/09 11:37:08;;;;;;;4.67;3.00;;;24.90;82.10;;;;;;5012544;28;20466;-64
2022/05/09 11:39:47;;;;;;;5.10;3.03;;;24.70;83.90;;;;;;5011303;28;20451;-63
2022/05/09 11:45:16;;;;;;;5.60;3.07;;;25.20;83.40;;;;;;5012688;28;20494;-63
2022/05/09 11:47:51;;;;;;;5.00;2.80;;;25.90;81.70;;;;;;5011122;28;20627;-63
2022/05/09 11:50:41;;;;;;;7.43;3.07;;;26.40;79.50;;;;;;5012205;28;20565;-63
2022/05/09 11:53:09;;;;;;;3.07;2.70;;;27.00;79.40;;;;;;5012260;28;20479;-63
2022/05/09 11:55:39;;;;;;;4.87;3.40;;;27.60;76.40;;;;;;5012309;28;20490;-63
2022/05/09 11:58:07;;;;;;;7.27;3.23;;;28.10;79.30;;;;;;5012263;28;20463;-63
2022/05/09 12:00:55;;;;;;;5.43;2.87;;;28.40;76.30;;;;;;5011148;28;20641;-63
2022/05/09 12:04:03;;;;;;;5.03;3.50;;;28.50;76.00;;;;;;5009064;28;20463;-63
2022/05/09 12:06:37;;;;;;;6.70;3.30;;;27.90;75.10;;;;;;5011576;28;20467;-63
2022/05/09 12:09:09;;;;;;;5.80;2.67;;;27.10;77.20;;;;;;5012096;28;20458;-63
2022/05/09 12:11:54;;;;;;;4.47;3.00;;;26.50;79.40;;;;;;5012192;28;20519;-64
2022/05/09 12:14:43;;;;;;;4.70;3.07;;;26.00;78.90;;;;;;5012335;28;21028;-63
2022/05/09 12:17:33;;;;;;;5.60;3.40;;;25.70;79.60;;;;;;5012357;28;20487;-63
2022/05/09 12:20:00;;;;;;;5.10;3.30;;;25.50;80.80;;;;;;5012486;28;20898;-64
2022/05/09 12:22:42;;;;;;;4.57;2.80;;;25.30;80.90;;;;;;5012267;28;20467;-63
2022/05/09 12:25:11;;;;;;;6.30;3.30;;;24.90;82.50;;;;;;5012172;28;20466;-64
2022/05/09 12:27:47;;;;;;;4.87;2.90;;;24.50;82.80;;;;;;5012002;28;20451;-63
2022/05/09 12:30:44;;;;;;;5.57;3.40;;;24.30;82.20;;;;;;5011409;28;20482;-63
2022/05/09 12:33:22;;;;;;;4.60;2.93;;;24.20;83.80;;;;;;5012101;28;20467;-63
2022/05/09 12:35:52;;;;;;;5.60;3.60;;;24.10;84.20;;;;;;5012044;28;20470;-65
2022/05/09 12:38:25;;;;;;;5.57;3.20;;;23.90;85.00;;;;;;5011748;28;20470;-63
2022/05/09 12:41:04;;;;;;;6.57;2.87;;;23.70;84.90;;;;;;5010614;28;20947;-62
2022/05/09 12:43:34;;;;;;;4.37;3.13;;;23.60;85.30;;;;;;5011783;28;20467;-63
2022/05/09 12:46:02;;;;;;;3.57;2.70;;;23.60;84.50;;;;;;5011973;28;20472;-63
2022/05/09 12:48:30;;;;;;;3.90;3.13;;;23.70;86.40;;;;;;5013655;28;20829;-64
2022/05/09 12:51:05;;;;;;;4.20;3.10;;;24.10;86.80;;;;;;5015582;28;20526;-63
2022/05/09 12:53:35;;;;;;;3.63;2.90;;;24.80;85.30;;;;;;5015730;28;21122;-64
2022/05/09 12:56:11;;;;;;;5.00;3.10;;;25.80;84.90;;;;;;5015640;28;20463;-63
2022/05/09 12:58:40;;;;;;;5.03;3.10;;;26.70;81.50;;;;;;5014160;28;20568;-63
2022/05/09 13:01:10;;;;;;;5.57;3.33;;;27.40;78.20;;;;;;5015825;28;20471;-63
2022/05/09 13:03:49;;;;;;;5.30;3.17;;;28.00;79.40;;;;;;5015684;28;20459;-64
2022/05/09 13:06:19;;;;;;;4.73;2.87;;;28.60;77.00;;;;;;5014834;28;20473;-63
2022/05/09 13:08:49;;;;;;;5.20;2.70;;;29.00;72.80;;;;;;5015838;28;20517;-63
2022/05/09 13:13:59;;;;;;;4.90;2.77;;;29.40;74.80;;;;;;5012821;28;20478;-66
2022/05/09 13:16:32;;;;;;;10.90;3.43;;;29.50;73.60;;;;;;5014591;28;21001;-66
2022/05/09 13:19:02;;;;;;;4.20;2.90;;;29.60;70.50;;;;;;5029918;28;20474;-66
2022/05/09 13:21:37;;;;;;;6.10;3.50;;;29.30;69.40;;;;;;5015675;28;20583;-66
2022/05/09 13:24:08;;;;;;;5.97;3.70;;;28.80;73.20;;;;;;5015417;28;20491;-66
2022/05/09 13:26:40;;;;;;;4.83;3.20;;;28.30;73.60;;;;;;5015411;28;20455;-66